Aeroporto :
LOGIN :

Iscrizione | Disclaimer

   EN    FR    IT 

 










Sommario :    VFR   VFR Marginale   IFR   IFR Intensivo   IFR Molto Intensivo
Visibilità : 
Base nubi : 
>= 8 km
>= 3000ft
5 / 8 km
1000 / 3000 ft
1500m / 5 km
500 / 1000 ft
800 / 1500m
200 / 500 ft
< 800m
< 200 ft
Simboli :   Temporali  Nebbia  Neve Forte  Precipitazioni Forti  Vento > 20 kt
SIGMETs :   Varie  Temporali  Ghiacco  Turbolenza  Onda orograficha  Ceneri Vulcaniche







- Altitudine del aeroporto : 218 ft
- Codice IATA : LBG
- Carte del aeroporto


LFPB - Paris / Le Bourget

ULTIMO METAR :
  • 181030Z AUTO 15010KT CAVOK 08/03 Q1019 NOSIG

METARs OBSOLETI :
  • 181000Z AUTO 16010KT CAVOK 07/03 Q1019 NOSIG
  • 180930Z AUTO 14009KT CAVOK 07/03 Q1019 NOSIG
  • 180900Z AUTO 14010KT CAVOK 06/03 Q1019 NOSIG
  • 180830Z AUTO 13008KT CAVOK 05/03 Q1019 TEMPO BKN004
  • 180800Z AUTO 13009KT 9999 FEW010 05/03 Q1020 BECMG BKN004
  • 180730Z AUTO 14008KT 9999 SCT007 05/03 Q1020 BECMG BKN004

TAF AMD TAF LFPB
Valido dal 18 a 08 ore il 19 a 06 ore UTC


180844Z 1808/1906 16010KT CAVOK
BECMG 1821/1823 20010KT BKN014
TEMPO 1823/1906 BKN011
TEMPO 1823/1903 4000 -RA
ATIS : +33 1 48 62 43 92
Nessun NOTAM noto per questo aeroporto.



MetMap, La meteo Aeronautica in un colpo d'occhio ! - Copyright ORBIFLY Dicembre 2007 - Disclaimer

ORBIFLY MET'MAP TEAM :

Programmazione e sviluppo : Alexandra Zaïnal
Concezione e sviluppo : Baudouin d'Aumeries
Co-Programmazione e sviluppo : Marc-Olivier Méhu
Supporto tecnico e logistico : Manuel Goepfert
Aiuto per la traduzione : Arnaldo La Scala

Contatto : metmap@orbifly.com




FONTI E CREDITI :

   NOAA